Terminal Aerodrome Forecast
Issued by NWS Mobile, AL

Home | Current Version | Previous Version | Text Only | Print | Product List | Glossary On
Versions: 1 2 3 4 5 6 7 8 9 10 11 12 13 14 15 16 17 18 19 20 21 22 23 24 25 26 27 28 29 30 31 32 33 34 35 36
472
FTUS44 KMOB 241128
TAFMOB
TAF
KMOB 241128Z 2412/2512 04003KT P6SM VCSH SCT040 SCT100 BKN250
     FM241700 13008KT P6SM VCTS BKN040CB
     FM250000 11005KT P6SM SCT050 BKN250=

USA.gov is the U.S. government's official web portal to all federal, state and local government web resources and services.